KMSP/MSP METAR and TAF weather

Enter ICAO airport designator
Station Type Date Time Source
KMSP METAR 2022/12/08 12:53 UTC NOAA

KMSP 081253Z 14005KT 10SM CLR M13/M16 A3039 RMK AO2 SLP309 T11281156


Station Type Date Time Source
KMSP Decoded METAR 2022/12/08 12:53 UTC NOAA

MINNEAPOLIS-ST PAUL INTERNATIONAL , MN, United States (KMSP) 44-52N 93-13W 265M
Dec 08, 2022 - 07:53 AM EST / 2022.12.08 1253 UTC
Wind: from the SE (140 degrees) at 6 MPH (5 KT):0
Visibility: 10 mile(s):0
Sky conditions: clear
Temperature: 9.0 F (-12.8 C)
Windchill: 0 F (-18 C):1
Dew Point: 3.9 F (-15.6 C)
Relative Humidity: 79%
Pressure (altimeter): 30.39 in. Hg (1029 hPa)
ob: KMSP 081253Z 14005KT 10SM CLR M13/M16 A3039 RMK AO2 SLP309 T11281156
cycle: 13

Station Type Date Time Source
KMSP TAF 2022/12/08 12:36 UTC NOAA

TAF KMSP 081134Z 0812/0918 13003KT P6SM FEW250
FM081800 14005KT P6SM SCT250
FM090300 09005KT 6SM -SN BR BKN035
FM090500 08005KT 4SM -SN BR BKN015
TEMPO 0909/0913 2SM -SN BR BKN009
FM091400 08010KT 6SM -SN BR BKN025

Example: see airport list